sensor_id;sensor_type;location;lat;lon;timestamp;pressure;altitude;pressure_sealevel;temperature;humidity
60589;BME280;46421;48.610;9.334;2022-11-20T00:00:55;97504.91;;;5.21;100.00
60589;BME280;46421;48.610;9.334;2022-11-20T00:03:20;97507.34;;;5.15;100.00
60589;BME280;46421;48.610;9.334;2022-11-20T00:05:46;97509.31;;;5.13;100.00
60589;BME280;46421;48.610;9.334;2022-11-20T00:08:11;97512.56;;;5.06;100.00
60589;BME280;46421;48.610;9.334;2022-11-20T00:10:38;97510.03;;;4.97;100.00
60589;BME280;46421;48.610;9.334;2022-11-20T00:13:03;97515.31;;;4.97;100.00
60589;BME280;46421;48.610;9.334;2022-11-20T00:15:29;97509.94;;;5.06;100.00
60589;BME280;46421;48.610;9.334;2022-11-20T00:17:54;97517.03;;;4.88;100.00
60589;BME280;46421;48.610;9.334;2022-11-20T00:20:20;97529.31;;;4.79;100.00
60589;BME280;46421;48.610;9.334;2022-11-20T00:22:45;97516.22;;;4.87;100.00
60589;BME280;46421;48.610;9.334;2022-11-20T00:25:10;97528.41;;;4.88;100.00
60589;BME280;46421;48.610;9.334;2022-11-20T00:27:36;97523.00;;;4.90;100.00
60589;BME280;46421;48.610;9.334;2022-11-20T00:30:02;97522.84;;;4.73;100.00
60589;BME280;46421;48.610;9.334;2022-11-20T00:32:29;97518.94;;;4.59;100.00
60589;BME280;46421;48.610;9.334;2022-11-20T00:34:54;97515.88;;;4.46;100.00
60589;BME280;46421;48.610;9.334;2022-11-20T00:37:19;97520.25;;;4.37;100.00
60589;BME280;46421;48.610;9.334;2022-11-20T00:39:45;97517.53;;;4.29;100.00
60589;BME280;46421;48.610;9.334;2022-11-20T00:42:10;97520.84;;;4.31;100.00
60589;BME280;46421;48.610;9.334;2022-11-20T00:44:35;97517.47;;;4.39;100.00
60589;BME280;46421;48.610;9.334;2022-11-20T00:47:01;97520.53;;;4.34;100.00
60589;BME280;46421;48.610;9.334;2022-11-20T00:49:26;97526.84;;;4.41;100.00
60589;BME280;46421;48.610;9.334;2022-11-20T00:51:51;97525.88;;;4.42;100.00
60589;BME280;46421;48.610;9.334;2022-11-20T00:54:17;97527.38;;;4.45;100.00
60589;BME280;46421;48.610;9.334;2022-11-20T00:56:42;97531.75;;;4.36;100.00
60589;BME280;46421;48.610;9.334;2022-11-20T00:59:08;97535.28;;;4.45;100.00
60589;BME280;46421;48.610;9.334;2022-11-20T01:01:35;97534.38;;;4.54;100.00
60589;BME280;46421;48.610;9.334;2022-11-20T01:04:01;97534.75;;;4.59;100.00
60589;BME280;46421;48.610;9.334;2022-11-20T01:06:32;97536.03;;;4.55;100.00
60589;BME280;46421;48.610;9.334;2022-11-20T01:09:04;97530.16;;;4.62;100.00
60589;BME280;46421;48.610;9.334;2022-11-20T01:11:32;97532.72;;;4.53;100.00
60589;BME280;46421;48.610;9.334;2022-11-20T01:13:59;97536.13;;;4.64;100.00
60589;BME280;46421;48.610;9.334;2022-11-20T01:16:31;97534.66;;;4.51;100.00
60589;BME280;46421;48.610;9.334;2022-11-20T01:18:58;97541.13;;;4.57;100.00
60589;BME280;46421;48.610;9.334;2022-11-20T01:21:27;97530.09;;;4.53;100.00
60589;BME280;46421;48.610;9.334;2022-11-20T01:23:53;97541.50;;;4.44;100.00
60589;BME280;46421;48.610;9.334;2022-11-20T01:26:21;97539.56;;;4.46;100.00
60589;BME280;46421;48.610;9.334;2022-11-20T01:28:47;97543.09;;;4.37;100.00
60589;BME280;46421;48.610;9.334;2022-11-20T01:31:24;97544.91;;;4.36;100.00
60589;BME280;46421;48.610;9.334;2022-11-20T01:33:53;97550.69;;;4.40;100.00
60589;BME280;46421;48.610;9.334;2022-11-20T01:36:21;97552.50;;;4.57;100.00
60589;BME280;46421;48.610;9.334;2022-11-20T01:38:47;97541.91;;;4.49;100.00
60589;BME280;46421;48.610;9.334;2022-11-20T01:41:14;97540.69;;;4.43;100.00
60589;BME280;46421;48.610;9.334;2022-11-20T01:44:00;97541.94;;;4.39;100.00
60589;BME280;46421;48.610;9.334;2022-11-20T01:46:26;97540.09;;;4.32;100.00
60589;BME280;46421;48.610;9.334;2022-11-20T01:49:08;97542.72;;;4.32;100.00
60589;BME280;46421;48.610;9.334;2022-11-20T01:51:42;97535.78;;;4.31;100.00
60589;BME280;46421;48.610;9.334;2022-11-20T01:54:16;97541.59;;;4.34;100.00
60589;BME280;46421;48.610;9.334;2022-11-20T01:56:44;97538.66;;;4.37;100.00
60589;BME280;46421;48.610;9.334;2022-11-20T01:59:13;97547.91;;;4.41;100.00
60589;BME280;46421;48.610;9.334;2022-11-20T02:01:41;97542.13;;;4.38;100.00
60589;BME280;46421;48.610;9.334;2022-11-20T02:04:07;97540.78;;;4.34;100.00
60589;BME280;46421;48.610;9.334;2022-11-20T02:06:38;97539.31;;;4.39;100.00
60589;BME280;46421;48.610;9.334;2022-11-20T02:09:05;97545.63;;;4.28;100.00
60589;BME280;46421;48.610;9.334;2022-11-20T02:11:31;97548.19;;;4.20;100.00
60589;BME280;46421;48.610;9.334;2022-11-20T02:13:57;97549.22;;;4.09;100.00
60589;BME280;46421;48.610;9.334;2022-11-20T02:16:25;97538.75;;;4.27;100.00
60589;BME280;46421;48.610;9.334;2022-11-20T02:18:54;97550.28;;;4.17;100.00
60589;BME280;46421;48.610;9.334;2022-11-20T02:24:17;97544.31;;;3.97;100.00
60589;BME280;46421;48.610;9.334;2022-11-20T02:26:49;97555.19;;;3.84;100.00
60589;BME280;46421;48.610;9.334;2022-11-20T02:29:19;97544.88;;;3.90;100.00
60589;BME280;46421;48.610;9.334;2022-11-20T02:31:47;97540.59;;;3.89;100.00
60589;BME280;46421;48.610;9.334;2022-11-20T02:34:12;97535.34;;;3.89;100.00
60589;BME280;46421;48.610;9.334;2022-11-20T02:36:39;97533.88;;;3.77;100.00
60589;BME280;46421;48.610;9.334;2022-11-20T02:39:07;97543.28;;;3.79;100.00
60589;BME280;46421;48.610;9.334;2022-11-20T02:41:37;97536.81;;;3.74;100.00
60589;BME280;46421;48.610;9.334;2022-11-20T02:44:04;97528.09;;;3.73;100.00
60589;BME280;46421;48.610;9.334;2022-11-20T02:46:30;97533.88;;;3.77;100.00
60589;BME280;46421;48.610;9.334;2022-11-20T02:48:55;97533.75;;;3.78;100.00
60589;BME280;46421;48.610;9.334;2022-11-20T02:51:21;97536.53;;;3.77;100.00
60589;BME280;46421;48.610;9.334;2022-11-20T02:53:47;97538.72;;;3.82;100.00
60589;BME280;46421;48.610;9.334;2022-11-20T02:56:12;97536.13;;;4.00;100.00
60589;BME280;46421;48.610;9.334;2022-11-20T02:58:37;97534.28;;;3.82;100.00
60589;BME280;46421;48.610;9.334;2022-11-20T03:01:03;97532.00;;;3.69;100.00
60589;BME280;46421;48.610;9.334;2022-11-20T03:03:28;97538.47;;;3.75;100.00
60589;BME280;46421;48.610;9.334;2022-11-20T03:05:54;97528.91;;;3.74;100.00
60589;BME280;46421;48.610;9.334;2022-11-20T03:08:19;97533.47;;;3.82;100.00
60589;BME280;46421;48.610;9.334;2022-11-20T03:10:44;97535.94;;;3.83;100.00
60589;BME280;46421;48.610;9.334;2022-11-20T03:13:10;97531.72;;;4.00;100.00
60589;BME280;46421;48.610;9.334;2022-11-20T03:15:36;97536.50;;;4.05;100.00
60589;BME280;46421;48.610;9.334;2022-11-20T03:18:02;97537.00;;;4.18;100.00
60589;BME280;46421;48.610;9.334;2022-11-20T03:20:28;97538.13;;;4.16;100.00
60589;BME280;46421;48.610;9.334;2022-11-20T03:22:54;97535.88;;;4.21;100.00
60589;BME280;46421;48.610;9.334;2022-11-20T03:25:20;97533.59;;;4.26;100.00
60589;BME280;46421;48.610;9.334;2022-11-20T03:27:46;97534.34;;;4.00;100.00
60589;BME280;46421;48.610;9.334;2022-11-20T03:30:11;97538.91;;;3.98;100.00
60589;BME280;46421;48.610;9.334;2022-11-20T03:32:37;97542.78;;;3.94;100.00
60589;BME280;46421;48.610;9.334;2022-11-20T03:35:02;97548.47;;;3.99;100.00
60589;BME280;46421;48.610;9.334;2022-11-20T03:37:28;97544.44;;;4.23;100.00
60589;BME280;46421;48.610;9.334;2022-11-20T03:39:53;97547.00;;;4.51;100.00
60589;BME280;46421;48.610;9.334;2022-11-20T03:42:18;97540.84;;;4.42;100.00
60589;BME280;46421;48.610;9.334;2022-11-20T03:45:03;97541.66;;;4.24;100.00
60589;BME280;46421;48.610;9.334;2022-11-20T03:47:28;97544.56;;;4.21;100.00
60589;BME280;46421;48.610;9.334;2022-11-20T03:49:54;97546.56;;;4.19;100.00
60589;BME280;46421;48.610;9.334;2022-11-20T03:52:19;97543.41;;;4.52;100.00
60589;BME280;46421;48.610;9.334;2022-11-20T03:54:44;97538.88;;;4.44;100.00
60589;BME280;46421;48.610;9.334;2022-11-20T03:57:10;97539.41;;;4.30;100.00
60589;BME280;46421;48.610;9.334;2022-11-20T03:59:35;97543.78;;;4.39;100.00
60589;BME280;46421;48.610;9.334;2022-11-20T04:02:00;97540.53;;;4.45;100.00
60589;BME280;46421;48.610;9.334;2022-11-20T04:04:26;97540.84;;;4.42;100.00
60589;BME280;46421;48.610;9.334;2022-11-20T04:06:51;97538.13;;;4.34;100.00
60589;BME280;46421;48.610;9.334;2022-11-20T04:09:16;97534.81;;;4.32;100.00
60589;BME280;46421;48.610;9.334;2022-11-20T04:11:42;97536.41;;;4.42;100.00
60589;BME280;46421;48.610;9.334;2022-11-20T04:14:13;97536.41;;;4.61;100.00
60589;BME280;46421;48.610;9.334;2022-11-20T04:16:39;97535.25;;;4.63;100.00
60589;BME280;46421;48.610;9.334;2022-11-20T04:19:13;97537.44;;;4.68;100.00
60589;BME280;46421;48.610;9.334;2022-11-20T04:21:39;97528.66;;;4.77;99.26
60589;BME280;46421;48.610;9.334;2022-11-20T04:24:05;97526.91;;;4.68;99.39
60589;BME280;46421;48.610;9.334;2022-11-20T04:26:31;97524.88;;;4.80;100.00
60589;BME280;46421;48.610;9.334;2022-11-20T04:28:57;97523.59;;;4.84;100.00
60589;BME280;46421;48.610;9.334;2022-11-20T04:31:26;97513.97;;;4.74;99.13
60589;BME280;46421;48.610;9.334;2022-11-20T04:33:51;97528.63;;;4.95;100.00
60589;BME280;46421;48.610;9.334;2022-11-20T04:36:19;97520.25;;;5.00;100.00
60589;BME280;46421;48.610;9.334;2022-11-20T04:38:45;97517.78;;;4.98;98.65
60589;BME280;46421;48.610;9.334;2022-11-20T04:41:19;97503.81;;;5.06;99.26
60589;BME280;46421;48.610;9.334;2022-11-20T04:43:53;97507.81;;;5.10;97.49
60589;BME280;46421;48.610;9.334;2022-11-20T04:46:23;97509.66;;;5.18;94.14
60589;BME280;46421;48.610;9.334;2022-11-20T04:48:49;97509.94;;;5.33;93.53
60589;BME280;46421;48.610;9.334;2022-11-20T04:51:14;97507.28;;;5.33;93.99
60589;BME280;46421;48.610;9.334;2022-11-20T04:53:41;97511.59;;;5.34;95.97
60589;BME280;46421;48.610;9.334;2022-11-20T04:56:08;97506.47;;;5.32;94.53
60589;BME280;46421;48.610;9.334;2022-11-20T04:58:35;97510.91;;;5.32;95.94
60589;BME280;46421;48.610;9.334;2022-11-20T05:01:05;97510.75;;;5.33;94.61
60589;BME280;46421;48.610;9.334;2022-11-20T05:03:31;97513.06;;;5.36;95.39
60589;BME280;46421;48.610;9.334;2022-11-20T05:06:00;97508.78;;;5.35;96.29
60589;BME280;46421;48.610;9.334;2022-11-20T05:08:25;97507.59;;;5.30;94.11
60589;BME280;46421;48.610;9.334;2022-11-20T05:10:51;97509.19;;;5.22;94.57
60589;BME280;46421;48.610;9.334;2022-11-20T05:13:16;97510.84;;;5.23;92.53
60589;BME280;46421;48.610;9.334;2022-11-20T05:15:41;97505.97;;;5.29;91.71
60589;BME280;46421;48.610;9.334;2022-11-20T05:18:07;97511.06;;;5.30;92.63
60589;BME280;46421;48.610;9.334;2022-11-20T05:20:32;97514.06;;;5.35;94.81
60589;BME280;46421;48.610;9.334;2022-11-20T05:22:58;97509.31;;;5.39;91.42
60589;BME280;46421;48.610;9.334;2022-11-20T05:25:23;97507.66;;;5.38;91.77
60589;BME280;46421;48.610;9.334;2022-11-20T05:27:49;97497.59;;;5.42;90.27
60589;BME280;46421;48.610;9.334;2022-11-20T05:30:17;97502.53;;;5.36;91.77
60589;BME280;46421;48.610;9.334;2022-11-20T05:32:43;97505.00;;;5.38;90.83
60589;BME280;46421;48.610;9.334;2022-11-20T05:35:08;97504.25;;;5.46;90.53
60589;BME280;46421;48.610;9.334;2022-11-20T05:37:33;97507.03;;;5.44;90.99
60589;BME280;46421;48.610;9.334;2022-11-20T05:39:59;97510.78;;;5.42;89.47
60589;BME280;46421;48.610;9.334;2022-11-20T05:42:24;97496.81;;;5.41;90.97
60589;BME280;46421;48.610;9.334;2022-11-20T05:44:59;97504.34;;;5.36;90.20
60589;BME280;46421;48.610;9.334;2022-11-20T05:47:26;97498.41;;;5.34;90.38
60589;BME280;46421;48.610;9.334;2022-11-20T05:49:52;97501.22;;;5.32;89.93
60589;BME280;46421;48.610;9.334;2022-11-20T05:52:17;97498.72;;;5.31;92.02
60589;BME280;46421;48.610;9.334;2022-11-20T05:54:42;97495.25;;;5.30;89.73
60589;BME280;46421;48.610;9.334;2022-11-20T05:57:08;97489.16;;;5.30;88.88
60589;BME280;46421;48.610;9.334;2022-11-20T05:59:34;97493.59;;;5.29;90.17
60589;BME280;46421;48.610;9.334;2022-11-20T06:01:59;97497.06;;;5.30;90.75
60589;BME280;46421;48.610;9.334;2022-11-20T06:04:24;97501.34;;;5.31;89.83
60589;BME280;46421;48.610;9.334;2022-11-20T06:06:50;97500.03;;;5.27;89.88
60589;BME280;46421;48.610;9.334;2022-11-20T06:09:15;97499.19;;;5.26;88.55
60589;BME280;46421;48.610;9.334;2022-11-20T06:11:40;97497.00;;;5.21;90.52
60589;BME280;46421;48.610;9.334;2022-11-20T06:14:06;97505.59;;;5.23;90.20
60589;BME280;46421;48.610;9.334;2022-11-20T06:16:31;97506.94;;;5.28;90.25
60589;BME280;46421;48.610;9.334;2022-11-20T06:18:57;97503.94;;;5.22;94.97
60589;BME280;46421;48.610;9.334;2022-11-20T06:21:22;97506.44;;;5.24;88.12
60589;BME280;46421;48.610;9.334;2022-11-20T06:23:49;97501.28;;;5.22;88.03
60589;BME280;46421;48.610;9.334;2022-11-20T06:26:18;97515.31;;;5.23;89.92
60589;BME280;46421;48.610;9.334;2022-11-20T06:28:44;97501.28;;;5.22;87.71
60589;BME280;46421;48.610;9.334;2022-11-20T06:31:11;97506.44;;;5.24;89.71
60589;BME280;46421;48.610;9.334;2022-11-20T06:33:37;97503.13;;;5.22;89.31
60589;BME280;46421;48.610;9.334;2022-11-20T06:36:03;97505.91;;;5.20;89.87
60589;BME280;46421;48.610;9.334;2022-11-20T06:38:29;97515.84;;;5.27;92.17
60589;BME280;46421;48.610;9.334;2022-11-20T06:40:55;97512.06;;;5.29;88.96
60589;BME280;46421;48.610;9.334;2022-11-20T06:43:21;97513.66;;;5.22;89.83
60589;BME280;46421;48.610;9.334;2022-11-20T06:45:52;97520.13;;;5.28;88.83
60589;BME280;46421;48.610;9.334;2022-11-20T06:48:18;97516.66;;;5.27;91.39
60589;BME280;46421;48.610;9.334;2022-11-20T06:50:43;97518.56;;;5.17;89.95
60589;BME280;46421;48.610;9.334;2022-11-20T06:53:08;97524.66;;;5.17;89.40
60589;BME280;46421;48.610;9.334;2022-11-20T06:55:34;97522.31;;;5.14;88.26
60589;BME280;46421;48.610;9.334;2022-11-20T06:57:59;97527.28;;;5.17;90.04
60589;BME280;46421;48.610;9.334;2022-11-20T07:00:25;97522.31;;;5.14;90.35
60589;BME280;46421;48.610;9.334;2022-11-20T07:02:50;97524.59;;;5.09;89.28
60589;BME280;46421;48.610;9.334;2022-11-20T07:05:17;97527.47;;;5.16;90.46
60589;BME280;46421;48.610;9.334;2022-11-20T07:07:42;97523.69;;;5.18;87.54
60589;BME280;46421;48.610;9.334;2022-11-20T07:10:08;97523.97;;;5.15;89.13
60589;BME280;46421;48.610;9.334;2022-11-20T07:12:34;97524.31;;;5.12;88.04
60589;BME280;46421;48.610;9.334;2022-11-20T07:14:59;97526.09;;;5.12;88.63
60589;BME280;46421;48.610;9.334;2022-11-20T07:17:24;97528.78;;;5.20;88.94
60589;BME280;46421;48.610;9.334;2022-11-20T07:19:50;97529.25;;;5.15;87.88
60589;BME280;46421;48.610;9.334;2022-11-20T07:22:15;97525.34;;;5.19;91.20
60589;BME280;46421;48.610;9.334;2022-11-20T07:24:41;97530.56;;;5.11;87.17
60589;BME280;46421;48.610;9.334;2022-11-20T07:27:06;97535.50;;;5.14;90.24
60589;BME280;46421;48.610;9.334;2022-11-20T07:29:31;97538.34;;;5.21;89.59
60589;BME280;46421;48.610;9.334;2022-11-20T07:31:57;97542.03;;;5.28;87.85
60589;BME280;46421;48.610;9.334;2022-11-20T07:34:22;97543.97;;;5.26;88.31
60589;BME280;46421;48.610;9.334;2022-11-20T07:36:48;97537.53;;;5.20;90.17
60589;BME280;46421;48.610;9.334;2022-11-20T07:39:13;97537.22;;;5.23;87.37
60589;BME280;46421;48.610;9.334;2022-11-20T07:41:39;97545.69;;;5.35;87.79
60589;BME280;46421;48.610;9.334;2022-11-20T07:44:04;97549.97;;;5.36;87.59
60589;BME280;46421;48.610;9.334;2022-11-20T07:46:30;97543.28;;;5.42;88.11
60589;BME280;46421;48.610;9.334;2022-11-20T07:48:55;97542.28;;;5.43;90.38
60589;BME280;46421;48.610;9.334;2022-11-20T07:51:20;97532.50;;;5.35;87.52
60589;BME280;46421;48.610;9.334;2022-11-20T07:53:46;97541.59;;;5.41;87.43
60589;BME280;46421;48.610;9.334;2022-11-20T07:56:11;97529.56;;;5.38;86.80
60589;BME280;46421;48.610;9.334;2022-11-20T07:58:36;97533.59;;;5.51;87.46
60589;BME280;46421;48.610;9.334;2022-11-20T08:01:04;97543.03;;;5.62;86.06
60589;BME280;46421;48.610;9.334;2022-11-20T08:03:30;97533.91;;;5.82;86.59
60589;BME280;46421;48.610;9.334;2022-11-20T08:05:58;97539.78;;;6.11;84.74
60589;BME280;46421;48.610;9.334;2022-11-20T08:08:24;97542.94;;;6.06;85.35
60589;BME280;46421;48.610;9.334;2022-11-20T08:10:49;97536.50;;;6.09;83.58
60589;BME280;46421;48.610;9.334;2022-11-20T08:13:15;97538.16;;;6.10;85.45
60589;BME280;46421;48.610;9.334;2022-11-20T08:15:59;97544.47;;;6.25;86.89
60589;BME280;46421;48.610;9.334;2022-11-20T08:18:24;97548.75;;;6.26;83.05
60589;BME280;46421;48.610;9.334;2022-11-20T08:20:49;97553.50;;;6.23;85.22
60589;BME280;46421;48.610;9.334;2022-11-20T08:23:15;97556.00;;;6.24;84.05
60589;BME280;46421;48.610;9.334;2022-11-20T08:25:40;97555.34;;;6.22;83.76
60589;BME280;46421;48.610;9.334;2022-11-20T08:28:08;97556.97;;;6.15;86.63
60589;BME280;46421;48.610;9.334;2022-11-20T08:30:34;97563.06;;;6.15;85.18
60589;BME280;46421;48.610;9.334;2022-11-20T08:33:07;97565.41;;;6.19;85.35
60589;BME280;46421;48.610;9.334;2022-11-20T08:35:37;97558.94;;;6.13;88.07
60589;BME280;46421;48.610;9.334;2022-11-20T08:38:04;97571.13;;;6.06;88.69
60589;BME280;46421;48.610;9.334;2022-11-20T08:40:30;97573.44;;;6.09;87.73
60589;BME280;46421;48.610;9.334;2022-11-20T08:42:55;97569.94;;;6.00;86.91
60589;BME280;46421;48.610;9.334;2022-11-20T08:45:21;97581.50;;;6.07;88.37
60589;BME280;46421;48.610;9.334;2022-11-20T08:47:46;97574.59;;;6.06;87.48
60589;BME280;46421;48.610;9.334;2022-11-20T08:50:13;97579.22;;;6.04;86.78
60589;BME280;46421;48.610;9.334;2022-11-20T08:52:39;97571.91;;;5.98;87.67
60589;BME280;46421;48.610;9.334;2022-11-20T08:55:05;97578.97;;;5.97;87.92
60589;BME280;46421;48.610;9.334;2022-11-20T08:57:32;97577.78;;;5.92;87.50
60589;BME280;46421;48.610;9.334;2022-11-20T08:59:58;97578.28;;;5.95;88.46
60589;BME280;46421;48.610;9.334;2022-11-20T09:02:23;97570.78;;;6.00;90.67
60589;BME280;46421;48.610;9.334;2022-11-20T09:04:48;97581.38;;;6.09;90.04
60589;BME280;46421;48.610;9.334;2022-11-20T09:07:14;97577.28;;;6.23;88.08
60589;BME280;46421;48.610;9.334;2022-11-20T09:09:39;97571.81;;;6.16;86.98
60589;BME280;46421;48.610;9.334;2022-11-20T09:12:04;97576.28;;;6.24;87.97
60589;BME280;46421;48.610;9.334;2022-11-20T09:14:30;97576.63;;;6.21;90.96
60589;BME280;46421;48.610;9.334;2022-11-20T09:16:56;97572.19;;;6.29;87.56
60589;BME280;46421;48.610;9.334;2022-11-20T09:19:23;97579.59;;;6.26;87.60
60589;BME280;46421;48.610;9.334;2022-11-20T09:21:49;97576.97;;;6.26;86.93
60589;BME280;46421;48.610;9.334;2022-11-20T09:24:14;97582.44;;;6.32;88.71
60589;BME280;46421;48.610;9.334;2022-11-20T09:26:39;97581.78;;;6.39;89.58
60589;BME280;46421;48.610;9.334;2022-11-20T09:29:05;97580.94;;;6.38;86.53
60589;BME280;46421;48.610;9.334;2022-11-20T09:31:30;97587.25;;;6.37;87.11
60589;BME280;46421;48.610;9.334;2022-11-20T09:33:56;97584.91;;;6.34;87.61
60589;BME280;46421;48.610;9.334;2022-11-20T09:36:21;97588.19;;;6.28;87.29
60589;BME280;46421;48.610;9.334;2022-11-20T09:38:47;97584.75;;;6.36;87.84
60589;BME280;46421;48.610;9.334;2022-11-20T09:47:08;97584.59;;;6.45;90.73
60589;BME280;46421;48.610;9.334;2022-11-20T09:55:25;97602.91;;;6.39;91.36
60589;BME280;46421;48.610;9.334;2022-11-20T09:57:52;97602.38;;;6.27;90.89
60589;BME280;46421;48.610;9.334;2022-11-20T10:00:18;97607.03;;;6.41;92.17
60589;BME280;46421;48.610;9.334;2022-11-20T10:03:00;97610.66;;;6.40;91.64
60589;BME280;46421;48.610;9.334;2022-11-20T10:05:35;97606.38;;;6.39;94.17
60589;BME280;46421;48.610;9.334;2022-11-20T10:11:04;97604.19;;;6.35;91.71
60589;BME280;46421;48.610;9.334;2022-11-20T10:16:36;97602.09;;;6.46;91.60
60589;BME280;46421;48.610;9.334;2022-11-20T10:24:55;97599.13;;;6.49;91.24
60589;BME280;46421;48.610;9.334;2022-11-20T10:30:20;97600.97;;;6.49;92.40
60589;BME280;46421;48.610;9.334;2022-11-20T10:32:52;97600.13;;;6.48;95.02
60589;BME280;46421;48.610;9.334;2022-11-20T10:35:25;97604.41;;;6.41;95.75
60589;BME280;46421;48.610;9.334;2022-11-20T10:37:58;97608.38;;;6.37;96.36
60589;BME280;46421;48.610;9.334;2022-11-20T10:40:35;97604.19;;;6.35;96.25
60589;BME280;46421;48.610;9.334;2022-11-20T10:43:33;97598.28;;;6.32;100.00
60589;BME280;46421;48.610;9.334;2022-11-20T10:46:01;97596.31;;;6.43;98.44
60589;BME280;46421;48.610;9.334;2022-11-20T10:48:31;97600.16;;;6.57;98.31
60589;BME280;46421;48.610;9.334;2022-11-20T10:51:37;97601.28;;;6.46;96.32
60589;BME280;46421;48.610;9.334;2022-11-20T10:54:17;97586.25;;;6.46;96.59
60589;BME280;46421;48.610;9.334;2022-11-20T10:56:51;97590.75;;;6.54;96.68
60589;BME280;46421;48.610;9.334;2022-11-20T11:02:00;97577.72;;;6.53;96.05
60589;BME280;46421;48.610;9.334;2022-11-20T11:07:05;97591.25;;;6.58;96.51
60589;BME280;46421;48.610;9.334;2022-11-20T11:09:35;97588.13;;;6.71;97.31
60589;BME280;46421;48.610;9.334;2022-11-20T11:12:07;97580.38;;;6.61;95.98
60589;BME280;46421;48.610;9.334;2022-11-20T11:14:44;97574.75;;;6.72;93.85
60589;BME280;46421;48.610;9.334;2022-11-20T11:17:26;97579.72;;;6.75;94.47
60589;BME280;46421;48.610;9.334;2022-11-20T11:20:07;97569.78;;;6.77;93.84
60589;BME280;46421;48.610;9.334;2022-11-20T11:22:46;97571.78;;;7.00;94.53
60589;BME280;46421;48.610;9.334;2022-11-20T11:27:53;97565.00;;;7.22;93.54
60589;BME280;46421;48.610;9.334;2022-11-20T11:30:22;97567.81;;;7.37;91.18
60589;BME280;46421;48.610;9.334;2022-11-20T11:32:48;97565.31;;;7.36;92.47
60589;BME280;46421;48.610;9.334;2022-11-20T11:35:21;97548.97;;;7.32;91.31
60589;BME280;46421;48.610;9.334;2022-11-20T11:37:47;97555.59;;;7.20;91.65
60589;BME280;46421;48.610;9.334;2022-11-20T11:40:13;97546.50;;;7.22;91.57
60589;BME280;46421;48.610;9.334;2022-11-20T11:42:43;97547.50;;;7.21;90.81
60589;BME280;46421;48.610;9.334;2022-11-20T11:45:15;97544.16;;;7.36;90.71
60589;BME280;46421;48.610;9.334;2022-11-20T11:50:24;97533.56;;;7.52;92.32
60589;BME280;46421;48.610;9.334;2022-11-20T11:52:58;97544.28;;;7.59;90.51
60589;BME280;46421;48.610;9.334;2022-11-20T11:55:31;97527.56;;;8.06;90.97
60589;BME280;46421;48.610;9.334;2022-11-20T11:58:11;97525.03;;;8.53;85.25
60589;BME280;46421;48.610;9.334;2022-11-20T12:00:41;97522.59;;;9.43;83.12
60589;BME280;46421;48.610;9.334;2022-11-20T12:03:28;97524.25;;;8.67;82.56
60589;BME280;46421;48.610;9.334;2022-11-20T12:05:59;97519.13;;;8.34;83.37
60589;BME280;46421;48.610;9.334;2022-11-20T12:08:46;97519.44;;;8.08;86.37
60589;BME280;46421;48.610;9.334;2022-11-20T12:14:14;97515.16;;;7.67;88.02
60589;BME280;46421;48.610;9.334;2022-11-20T12:16:41;97500.31;;;7.58;87.19
60589;BME280;46421;48.610;9.334;2022-11-20T12:19:12;97508.22;;;7.66;83.52
60589;BME280;46421;48.610;9.334;2022-11-20T12:27:22;97500.78;;;8.01;82.13
60589;BME280;46421;48.610;9.334;2022-11-20T12:30:02;97502.75;;;8.07;84.22
60589;BME280;46421;48.610;9.334;2022-11-20T12:43:30;97493.31;;;8.36;76.58
60589;BME280;46421;48.610;9.334;2022-11-20T12:49:24;97503.00;;;8.21;74.16
60589;BME280;46421;48.610;9.334;2022-11-20T12:51:58;97499.91;;;7.78;77.32
60589;BME280;46421;48.610;9.334;2022-11-20T12:54:56;97502.63;;;7.61;78.85
60589;BME280;46421;48.610;9.334;2022-11-20T13:00:27;97510.63;;;7.44;80.75
60589;BME280;46421;48.610;9.334;2022-11-20T13:03:42;97509.47;;;7.39;81.70
60589;BME280;46421;48.610;9.334;2022-11-20T13:06:17;97508.00;;;7.28;83.09
60589;BME280;46421;48.610;9.334;2022-11-20T13:08:53;97507.81;;;7.30;88.81
60589;BME280;46421;48.610;9.334;2022-11-20T13:14:04;97507.38;;;7.09;86.24
60589;BME280;46421;48.610;9.334;2022-11-20T13:16:53;97506.38;;;7.19;89.76
60589;BME280;46421;48.610;9.334;2022-11-20T13:19:22;97508.00;;;7.28;86.41
60589;BME280;46421;48.610;9.334;2022-11-20T13:21:49;97495.38;;;7.47;86.30
60589;BME280;46421;48.610;9.334;2022-11-20T13:26:59;97493.56;;;7.55;76.88
60589;BME280;46421;48.610;9.334;2022-11-20T13:29:25;97500.22;;;7.35;75.16
60589;BME280;46421;48.610;9.334;2022-11-20T13:32:04;97501.84;;;7.36;73.55
60589;BME280;46421;48.610;9.334;2022-11-20T13:34:30;97498.88;;;7.39;74.52
60589;BME280;46421;48.610;9.334;2022-11-20T13:36:57;97494.44;;;7.31;79.95
60589;BME280;46421;48.610;9.334;2022-11-20T13:39:33;97494.94;;;7.35;75.02
60589;BME280;46421;48.610;9.334;2022-11-20T13:42:01;97500.84;;;7.45;77.61
60589;BME280;46421;48.610;9.334;2022-11-20T13:44:33;97494.06;;;7.51;74.71
60589;BME280;46421;48.610;9.334;2022-11-20T13:47:00;97490.63;;;7.42;75.79
60589;BME280;46421;48.610;9.334;2022-11-20T13:49:30;97485.19;;;7.35;74.73
60589;BME280;46421;48.610;9.334;2022-11-20T14:00:16;97471.66;;;7.22;78.85
60589;BME280;46421;48.610;9.334;2022-11-20T14:02:42;97468.66;;;7.25;76.21
60589;BME280;46421;48.610;9.334;2022-11-20T14:05:19;97467.97;;;7.31;78.58
60589;BME280;46421;48.610;9.334;2022-11-20T14:07:47;97462.31;;;7.51;77.72
60589;BME280;46421;48.610;9.334;2022-11-20T14:10:29;97451.84;;;7.66;73.68
60589;BME280;46421;48.610;9.334;2022-11-20T14:12:55;97453.41;;;7.52;71.31
60589;BME280;46421;48.610;9.334;2022-11-20T14:15:33;97460.59;;;7.66;74.58
60589;BME280;46421;48.610;9.334;2022-11-20T14:17:59;97463.22;;;7.74;72.60
60589;BME280;46421;48.610;9.334;2022-11-20T14:20:37;97460.03;;;7.39;73.27
60589;BME280;46421;48.610;9.334;2022-11-20T14:23:02;97468.38;;;7.20;74.23
60589;BME280;46421;48.610;9.334;2022-11-20T14:25:30;97463.78;;;7.05;82.16
60589;BME280;46421;48.610;9.334;2022-11-20T14:28:00;97468.22;;;6.88;75.85
60589;BME280;46421;48.610;9.334;2022-11-20T14:30:44;97462.66;;;6.75;75.36
60589;BME280;46421;48.610;9.334;2022-11-20T14:33:11;97466.78;;;6.61;77.59